Time;durP1;ratioP1;P1;durP2;ratioP2;P2;SDS_P1;SDS_P2;PMS_P1;PMS_P2;Temp;Humidity;BMP_temperature;BMP_pressure;BME280_temperature;BME280_humidity;BME280_pressure;Samples;Min_cycle;Max_cycle;Signal;HPM_P1;HPM_P2
2022/06/29 00:02:19;;;;;;;0.30;0.30;;;16.60;99.90;;;;;;5053566;28;20687;-69
2022/06/29 00:04:45;;;;;;;0.30;0.30;;;16.60;99.90;;;;;;5053422;28;20285;-68
2022/06/29 00:07:11;;;;;;;0.53;0.53;;;16.60;99.90;;;;;;5053352;28;20206;-68
2022/06/29 00:09:37;;;;;;;0.40;0.40;;;16.50;99.90;;;;;;5053293;28;20273;-69
2022/06/29 00:12:02;;;;;;;0.40;0.40;;;16.60;99.90;;;;;;5053276;28;20921;-70
2022/06/29 00:14:28;;;;;;;0.30;0.30;;;16.60;99.90;;;;;;5053382;28;20232;-70
2022/06/29 00:16:54;;;;;;;0.30;0.30;;;16.70;99.90;;;;;;5053244;28;20456;-69
2022/06/29 00:19:19;;;;;;;2.10;2.00;;;16.70;99.90;;;;;;5053084;28;20604;-69
2022/06/29 00:21:45;;;;;;;0.30;0.30;;;16.60;99.90;;;;;;5053493;28;20169;-70
2022/06/29 00:24:11;;;;;;;0.30;0.30;;;16.60;99.90;;;;;;5053245;28;20173;-69
2022/06/29 00:26:36;;;;;;;0.40;0.40;;;16.60;99.90;;;;;;5053135;28;20677;-69
2022/06/29 00:29:02;;;;;;;0.37;0.37;;;16.60;99.90;;;;;;5053074;28;20167;-70
2022/06/29 00:31:28;;;;;;;0.30;0.30;;;16.60;99.90;;;;;;5053075;28;20186;-69
2022/06/29 00:33:54;;;;;;;0.30;0.30;;;16.60;99.90;;;;;;5053335;28;20777;-70
2022/06/29 00:36:19;;;;;;;0.67;0.67;;;16.70;99.90;;;;;;5053036;28;20197;-69
2022/06/29 00:38:45;;;;;;;0.30;0.30;;;16.70;99.90;;;;;;5052909;28;20178;-69
2022/06/29 00:41:11;;;;;;;0.30;0.30;;;16.80;99.90;;;;;;5053201;28;20221;-70
2022/06/29 00:43:41;;;;;;;1.50;1.43;;;16.80;99.90;;;;;;5053181;28;20178;-69
2022/06/29 00:46:07;;;;;;;0.40;0.40;;;16.80;99.90;;;;;;5053022;28;20198;-69
2022/06/29 00:48:34;;;;;;;0.30;0.30;;;16.90;99.90;;;;;;5051627;28;20901;-69
2022/06/29 00:51:02;;;;;;;0.30;0.30;;;16.90;99.90;;;;;;5053012;28;20400;-70
2022/06/29 00:53:32;;;;;;;0.60;0.60;;;16.90;99.90;;;;;;5055384;28;20491;-69
2022/06/29 00:56:01;;;;;;;0.60;0.60;;;16.90;99.90;;;;;;5056638;28;20473;-69
2022/06/29 00:58:28;;;;;;;0.30;0.30;;;16.90;99.90;;;;;;5056651;28;20802;-69
2022/06/29 01:01:00;;;;;;;0.30;0.30;;;16.90;99.90;;;;;;5056652;28;20407;-69
2022/06/29 01:03:26;;;;;;;0.30;0.30;;;16.90;99.90;;;;;;5056866;28;20447;-69
2022/06/29 01:05:52;;;;;;;0.30;0.30;;;16.90;99.90;;;;;;5056429;28;20447;-70
2022/06/29 01:08:18;;;;;;;0.40;0.40;;;16.90;99.90;;;;;;5056541;28;20174;-69
2022/06/29 01:10:43;;;;;;;0.30;0.30;;;17.00;99.90;;;;;;5056471;28;20499;-70
2022/06/29 01:13:10;;;;;;;0.30;0.30;;;17.00;99.90;;;;;;5056576;28;20529;-69
2022/06/29 01:15:36;;;;;;;0.40;0.40;;;17.00;99.90;;;;;;5056326;28;20255;-69
2022/06/29 01:18:02;;;;;;;0.40;0.30;;;17.00;99.90;;;;;;5054887;28;20913;-69
2022/06/29 01:20:28;;;;;;;0.40;0.40;;;17.00;99.90;;;;;;5056409;28;20177;-69
2022/06/29 01:22:54;;;;;;;0.40;0.40;;;17.00;99.90;;;;;;5056403;28;20462;-70
2022/06/29 01:25:20;;;;;;;0.30;0.30;;;17.00;99.90;;;;;;5056341;28;20834;-69
2022/06/29 01:27:46;;;;;;;0.40;0.40;;;17.00;99.90;;;;;;5056062;28;20277;-70
2022/06/29 01:30:12;;;;;;;0.30;0.30;;;17.10;99.90;;;;;;5055923;28;20822;-70
2022/06/29 01:32:39;;;;;;;0.70;0.70;;;17.00;99.90;;;;;;5056292;28;20535;-70
2022/06/29 01:35:08;;;;;;;0.40;0.40;;;17.00;99.90;;;;;;5056054;28;20420;-69
2022/06/29 01:37:34;;;;;;;0.40;0.40;;;17.10;99.90;;;;;;5055999;28;20404;-69
2022/06/29 01:39:59;;;;;;;0.30;0.30;;;17.10;99.90;;;;;;5055752;28;20444;-69
2022/06/29 01:42:25;;;;;;;0.40;0.40;;;17.10;99.90;;;;;;5056095;28;20622;-69
2022/06/29 01:44:50;;;;;;;0.30;0.30;;;17.10;99.90;;;;;;5055792;28;20269;-70
2022/06/29 01:47:16;;;;;;;0.60;0.60;;;17.10;99.90;;;;;;5055827;28;20205;-69
2022/06/29 01:49:42;;;;;;;0.67;0.67;;;17.20;99.90;;;;;;5055678;28;20177;-69
2022/06/29 01:52:08;;;;;;;0.30;0.30;;;17.20;99.90;;;;;;5055861;28;20174;-70
2022/06/29 01:54:33;;;;;;;0.30;0.30;;;17.10;99.90;;;;;;5055755;28;20794;-68
2022/06/29 01:56:59;;;;;;;0.53;0.53;;;17.20;99.90;;;;;;5055553;28;20182;-69
2022/06/29 01:59:25;;;;;;;0.37;0.37;;;17.20;99.90;;;;;;5055471;28;20210;-69
2022/06/29 02:01:50;;;;;;;0.30;0.30;;;17.10;99.90;;;;;;5055750;28;20212;-69
2022/06/29 02:04:16;;;;;;;0.30;0.30;;;17.10;99.90;;;;;;5054398;28;20174;-69
2022/06/29 02:06:42;;;;;;;0.67;0.63;;;17.10;99.90;;;;;;5055282;28;20716;-69
2022/06/29 02:09:07;;;;;;;0.63;0.63;;;17.10;99.90;;;;;;5055296;28;20507;-70
2022/06/29 02:11:33;;;;;;;0.30;0.30;;;17.10;99.90;;;;;;5055270;28;20170;-69
2022/06/29 02:13:59;;;;;;;0.30;0.30;;;17.10;99.90;;;;;;5055464;28;20529;-69
2022/06/29 02:16:24;;;;;;;0.30;0.30;;;17.10;99.90;;;;;;5055552;28;20174;-70
2022/06/29 02:18:50;;;;;;;0.40;0.40;;;17.20;99.90;;;;;;5054891;28;20174;-69
2022/06/29 02:21:16;;;;;;;0.30;0.30;;;17.20;99.90;;;;;;5055298;28;20206;-69
2022/06/29 02:23:41;;;;;;;0.30;0.30;;;17.20;99.90;;;;;;5055286;28;20236;-69
2022/06/29 02:26:07;;;;;;;0.30;0.30;;;17.20;99.90;;;;;;5054806;28;20228;-70
2022/06/29 02:28:33;;;;;;;0.30;0.30;;;17.20;99.90;;;;;;5054907;28;20170;-69
2022/06/29 02:36:27;;;;;;;0.30;0.30;;;17.10;99.90;;;;;;5054873;28;20454;-69
2022/06/29 02:38:52;;;;;;;0.83;0.83;;;17.10;99.90;;;;;;5054617;28;20905;-70
2022/06/29 02:41:18;;;;;;;0.30;0.30;;;17.00;99.90;;;;;;5054991;28;20170;-69
2022/06/29 02:43:45;;;;;;;2.17;2.10;;;17.00;99.90;;;;;;5054770;28;20308;-70
2022/06/29 02:46:10;;;;;;;0.30;0.30;;;16.90;99.90;;;;;;5054504;28;20190;-69
2022/06/29 02:48:36;;;;;;;4.43;1.13;;;16.70;99.90;;;;;;5054419;28;20401;-70
2022/06/29 02:51:02;;;;;;;3.70;0.80;;;16.60;99.90;;;;;;5054760;28;20193;-70
2022/06/29 02:53:28;;;;;;;1.07;1.07;;;16.50;99.90;;;;;;5054565;28;20170;-70
2022/06/29 02:55:54;;;;;;;0.30;0.30;;;16.40;99.90;;;;;;5054549;28;20421;-69
2022/06/29 02:58:20;;;;;;;0.67;0.67;;;16.30;99.90;;;;;;5054497;28;20515;-69
2022/06/29 03:00:45;;;;;;;0.30;0.30;;;16.30;99.90;;;;;;5054513;28;20454;-70
2022/06/29 03:03:11;;;;;;;0.30;0.30;;;16.20;99.90;;;;;;5054535;28;20173;-69
2022/06/29 03:05:37;;;;;;;0.30;0.30;;;16.20;99.90;;;;;;5054073;28;20593;-69
2022/06/29 03:08:03;;;;;;;0.40;0.40;;;16.20;99.90;;;;;;5054250;28;20663;-70
2022/06/29 03:10:28;;;;;;;0.30;0.30;;;16.20;99.90;;;;;;5054432;28;20759;-69
2022/06/29 03:12:54;;;;;;;0.30;0.30;;;16.20;99.90;;;;;;5054522;28;20405;-69
2022/06/29 03:15:20;;;;;;;0.40;0.40;;;16.20;99.90;;;;;;5053902;28;20200;-68
2022/06/29 03:17:45;;;;;;;0.30;0.30;;;16.10;99.90;;;;;;5054080;28;20698;-70
2022/06/29 03:20:13;;;;;;;0.33;0.33;;;16.10;99.90;;;;;;5054023;28;20166;-69
2022/06/29 03:22:39;;;;;;;0.40;0.40;;;16.10;99.90;;;;;;5053985;28;20656;-70
2022/06/29 03:25:05;;;;;;;1.70;1.60;;;16.00;99.90;;;;;;5054053;28;20435;-70
2022/06/29 03:27:32;;;;;;;0.30;0.30;;;16.10;99.90;;;;;;5053895;28;20449;-69
2022/06/29 03:29:58;;;;;;;1.03;1.03;;;16.10;99.90;;;;;;5053887;28;20457;-70
2022/06/29 03:32:23;;;;;;;0.30;0.30;;;16.00;99.90;;;;;;5053832;28;20911;-69
2022/06/29 03:34:49;;;;;;;0.30;0.30;;;15.90;99.90;;;;;;5053877;28;20426;-70
2022/06/29 03:37:15;;;;;;;0.50;0.50;;;15.90;99.90;;;;;;5053738;28;20177;-68
2022/06/29 03:39:41;;;;;;;0.30;0.30;;;15.90;99.90;;;;;;5053792;28;20176;-70
2022/06/29 03:42:07;;;;;;;1.03;1.03;;;15.90;99.90;;;;;;5053872;28;20207;-69
2022/06/29 03:44:33;;;;;;;0.93;0.93;;;15.80;99.90;;;;;;5053184;28;20841;-70
2022/06/29 03:46:58;;;;;;;0.30;0.30;;;15.80;99.90;;;;;;5053580;28;20201;-69
2022/06/29 03:49:24;;;;;;;0.40;0.40;;;15.90;99.90;;;;;;5053456;28;20650;-69
2022/06/29 03:51:50;;;;;;;0.40;0.40;;;15.70;99.90;;;;;;5053537;28;20201;-68
2022/06/29 03:54:15;;;;;;;0.50;0.50;;;15.80;99.90;;;;;;5053514;28;20680;-69
2022/06/29 03:56:41;;;;;;;0.30;0.30;;;15.80;99.90;;;;;;5053657;28;20256;-69
2022/06/29 03:59:06;;;;;;;0.40;0.40;;;15.80;99.90;;;;;;5053337;28;20296;-68
2022/06/29 04:01:32;;;;;;;0.40;0.40;;;15.70;99.90;;;;;;5053697;28;20513;-69
2022/06/29 04:03:58;;;;;;;0.30;0.30;;;15.70;99.90;;;;;;5053498;28;20173;-69
2022/06/29 04:06:23;;;;;;;0.50;0.50;;;15.80;99.90;;;;;;5052011;28;20223;-69
2022/06/29 04:08:49;;;;;;;0.30;0.30;;;15.80;99.90;;;;;;5053236;28;20172;-69
2022/06/29 04:13:59;;;;;;;0.30;0.30;;;16.00;99.90;;;;;;5053306;28;20173;-69
2022/06/29 04:16:24;;;;;;;0.40;0.40;;;16.10;99.90;;;;;;5053274;28;20408;-69
2022/06/29 04:18:50;;;;;;;0.30;0.30;;;16.10;99.90;;;;;;5053079;28;20166;-69
2022/06/29 04:21:16;;;;;;;0.40;0.40;;;16.30;99.90;;;;;;5053303;28;20180;-69
2022/06/29 04:23:41;;;;;;;0.40;0.40;;;16.40;99.90;;;;;;5053450;28;20174;-69
2022/06/29 04:26:07;;;;;;;0.30;0.30;;;16.60;99.90;;;;;;5053027;28;20193;-69
2022/06/29 04:28:33;;;;;;;0.30;0.30;;;16.80;99.90;;;;;;5055821;28;20165;-70
2022/06/29 04:31:00;;;;;;;0.30;0.30;;;17.20;99.90;;;;;;5057384;28;20409;-70
2022/06/29 04:33:26;;;;;;;0.30;0.30;;;17.70;99.90;;;;;;5057222;28;20257;-70
2022/06/29 04:35:52;;;;;;;0.40;0.40;;;18.10;99.90;;;;;;5057094;28;20863;-69
2022/06/29 04:38:18;;;;;;;0.67;0.67;;;18.30;99.90;;;;;;5056968;28;20515;-71
2022/06/29 04:40:43;;;;;;;0.30;0.30;;;18.60;99.90;;;;;;5057069;28;20251;-69
2022/06/29 04:43:09;;;;;;;0.30;0.30;;;18.90;99.90;;;;;;5057154;28;20801;-69
2022/06/29 04:48:19;;;;;;;0.43;0.43;;;19.20;99.90;;;;;;5056791;28;20250;-69
2022/06/29 04:50:45;;;;;;;0.30;0.30;;;19.10;99.90;;;;;;5057108;28;20406;-70
2022/06/29 04:53:10;;;;;;;0.50;0.50;;;19.00;99.90;;;;;;5056763;28;20405;-71
2022/06/29 04:55:36;;;;;;;0.40;0.40;;;18.90;99.90;;;;;;5056719;28;20212;-69
2022/06/29 04:58:02;;;;;;;0.30;0.30;;;18.90;99.90;;;;;;5056486;28;20170;-70
2022/06/29 05:00:27;;;;;;;0.93;0.93;;;18.80;99.90;;;;;;5056910;28;20642;-70
2022/06/29 05:02:53;;;;;;;0.30;0.30;;;18.80;99.90;;;;;;5056686;28;20172;-70
2022/06/29 05:05:19;;;;;;;0.30;0.30;;;18.70;99.90;;;;;;5055158;28;20202;-70
2022/06/29 05:07:44;;;;;;;0.30;0.30;;;18.60;99.90;;;;;;5056822;28;20231;-70
2022/06/29 05:10:10;;;;;;;0.70;0.70;;;18.50;99.90;;;;;;5056521;28;20164;-69
2022/06/29 05:12:38;;;;;;;0.40;0.40;;;18.60;99.90;;;;;;5056566;28;20171;-70
2022/06/29 05:15:07;;;;;;;0.30;0.30;;;18.60;99.90;;;;;;5054946;28;20663;-70
2022/06/29 05:17:36;;;;;;;0.30;0.30;;;18.70;99.90;;;;;;5056385;28;20449;-69
2022/06/29 05:20:07;;;;;;;0.30;0.30;;;18.90;99.90;;;;;;5056160;28;20409;-69
2022/06/29 05:22:33;;;;;;;0.30;0.30;;;19.20;99.90;;;;;;5056513;28;20407;-70
2022/06/29 05:24:59;;;;;;;0.30;0.30;;;19.40;99.90;;;;;;5056168;28;20485;-70
2022/06/29 05:27:25;;;;;;;0.30;0.30;;;19.60;99.90;;;;;;5056085;28;20466;-70
2022/06/29 05:29:51;;;;;;;0.70;0.70;;;19.80;99.90;;;;;;5054640;28;20419;-70
2022/06/29 05:32:16;;;;;;;0.30;0.30;;;19.90;99.90;;;;;;5056162;28;20169;-70
2022/06/29 05:34:42;;;;;;;0.50;0.50;;;20.10;99.90;;;;;;5056098;28;20229;-69
2022/06/29 05:37:08;;;;;;;0.70;0.70;;;20.20;99.90;;;;;;5056014;28;20284;-69
2022/06/29 05:39:33;;;;;;;0.43;0.43;;;20.20;99.90;;;;;;5055532;28;20170;-69
2022/06/29 05:41:59;;;;;;;0.30;0.30;;;20.30;99.90;;;;;;5055967;28;20409;-69
2022/06/29 05:44:25;;;;;;;0.30;0.30;;;20.50;99.90;;;;;;5056233;28;20537;-70
2022/06/29 05:46:51;;;;;;;0.63;0.63;;;20.70;99.60;;;;;;5055914;28;20230;-70
2022/06/29 05:49:16;;;;;;;0.70;0.70;;;20.80;99.50;;;;;;5055732;28;20188;-69
2022/06/29 05:51:42;;;;;;;0.40;0.40;;;21.00;99.50;;;;;;5055765;28;20435;-69
2022/06/29 05:54:08;;;;;;;0.30;0.30;;;21.20;99.40;;;;;;5055831;28;20254;-70
2022/06/29 05:56:33;;;;;;;0.30;0.30;;;21.40;99.20;;;;;;5055658;28;20259;-70
2022/06/29 05:58:59;;;;;;;0.53;0.53;;;21.70;99.30;;;;;;5055561;28;20641;-70
2022/06/29 06:01:24;;;;;;;0.40;0.40;;;21.80;98.50;;;;;;5055638;28;20176;-69
2022/06/29 06:03:50;;;;;;;0.30;0.30;;;21.80;98.20;;;;;;5055653;28;20564;-70
2022/06/29 06:06:16;;;;;;;0.40;0.40;;;21.70;98.30;;;;;;5055316;28;20679;-70
2022/06/29 06:08:41;;;;;;;0.30;0.30;;;21.50;98.50;;;;;;5055454;28;20655;-70
2022/06/29 06:11:07;;;;;;;0.30;0.30;;;21.30;99.00;;;;;;5055548;28;20178;-69
2022/06/29 06:13:33;;;;;;;0.40;0.40;;;21.20;99.50;;;;;;5055760;28;20166;-70
2022/06/29 06:15:59;;;;;;;0.50;0.50;;;21.10;99.50;;;;;;5055225;28;20198;-71
2022/06/29 06:18:25;;;;;;;0.30;0.30;;;21.20;99.30;;;;;;5055390;28;20174;-70
2022/06/29 06:20:50;;;;;;;0.30;0.30;;;21.30;99.70;;;;;;5055362;28;21100;-70
2022/06/29 06:23:16;;;;;;;0.40;0.40;;;21.60;99.40;;;;;;5054108;28;20415;-69
2022/06/29 06:25:42;;;;;;;0.90;0.80;;;21.80;99.00;;;;;;5055226;28;20194;-70
2022/06/29 06:28:08;;;;;;;0.53;0.53;;;22.00;99.00;;;;;;5054812;28;20196;-70
2022/06/29 06:30:33;;;;;;;0.50;0.50;;;22.10;98.20;;;;;;5055276;28;20257;-70
2022/06/29 06:32:59;;;;;;;0.80;0.67;;;22.30;97.80;;;;;;5055037;28;20212;-70
2022/06/29 06:35:25;;;;;;;0.30;0.30;;;22.30;97.70;;;;;;5055011;28;20198;-70
2022/06/29 06:37:52;;;;;;;0.30;0.30;;;22.50;98.10;;;;;;5054879;28;20409;-69
2022/06/29 06:43:02;;;;;;;0.30;0.30;;;23.70;95.70;;;;;;5054863;28;20381;-69
2022/06/29 06:45:31;;;;;;;1.10;1.10;;;24.60;95.30;;;;;;5054648;28;20433;-70
2022/06/29 06:47:56;;;;;;;0.33;0.33;;;25.60;93.20;;;;;;5054605;28;20205;-70
2022/06/29 06:50:22;;;;;;;0.40;0.40;;;26.00;92.30;;;;;;5054136;28;20420;-70
2022/06/29 06:52:47;;;;;;;0.30;0.30;;;25.50;91.70;;;;;;5054733;28;20232;-70
2022/06/29 06:55:13;;;;;;;0.30;0.30;;;24.70;92.40;;;;;;5054460;28;20183;-70
2022/06/29 06:57:39;;;;;;;0.30;0.30;;;24.10;93.10;;;;;;5054534;28;20231;-69
2022/06/29 07:00:05;;;;;;;0.30;0.30;;;23.90;93.60;;;;;;5054444;28;20174;-70
2022/06/29 07:02:31;;;;;;;0.30;0.30;;;23.80;94.30;;;;;;5054560;28;20195;-70
2022/06/29 07:04:57;;;;;;;0.30;0.30;;;23.70;94.50;;;;;;5054211;28;20424;-70
2022/06/29 07:07:22;;;;;;;0.37;0.37;;;23.70;95.20;;;;;;5054124;28;20665;-70
2022/06/29 07:09:48;;;;;;;0.30;0.30;;;24.20;94.70;;;;;;5054116;28;20171;-70
2022/06/29 07:12:14;;;;;;;0.30;0.30;;;25.20;93.00;;;;;;5054270;28;20170;-70
2022/06/29 07:14:40;;;;;;;0.83;0.83;;;25.80;91.40;;;;;;5054116;28;20665;-69
2022/06/29 07:17:05;;;;;;;0.40;0.40;;;26.70;91.00;;;;;;5054154;28;20649;-71
2022/06/29 07:19:31;;;;;;;0.30;0.30;;;27.30;87.80;;;;;;5052626;28;20642;-71
2022/06/29 07:21:56;;;;;;;0.77;0.77;;;27.30;87.60;;;;;;5054174;28;20205;-70
2022/06/29 07:24:22;;;;;;;1.63;1.43;;;27.40;87.30;;;;;;5053950;28;20186;-71
2022/06/29 07:26:48;;;;;;;0.30;0.30;;;27.40;86.80;;;;;;5053900;28;20200;-71
2022/06/29 07:29:13;;;;;;;0.63;0.63;;;27.30;84.60;;;;;;5053847;28;20166;-70
2022/06/29 07:31:39;;;;;;;0.50;0.50;;;26.80;84.80;;;;;;5054105;28;20177;-70
2022/06/29 07:34:04;;;;;;;0.30;0.30;;;26.20;85.70;;;;;;5053893;28;20208;-70
2022/06/29 07:36:30;;;;;;;0.40;0.40;;;25.60;88.10;;;;;;5053941;28;20246;-69
2022/06/29 07:38:56;;;;;;;0.40;0.40;;;25.20;89.40;;;;;;5053535;28;20707;-71
2022/06/29 07:41:22;;;;;;;0.40;0.40;;;25.00;90.70;;;;;;5053949;28;20791;-70
2022/06/29 07:43:48;;;;;;;0.40;0.40;;;25.60;90.80;;;;;;5053694;28;20412;-71
2022/06/29 07:46:14;;;;;;;0.40;0.40;;;27.70;90.20;;;;;;5053516;28;20493;-71
2022/06/29 07:48:39;;;;;;;0.40;0.40;;;29.60;76.10;;;;;;5053567;28;20177;-71
2022/06/29 07:51:05;;;;;;;0.30;0.30;;;31.50;73.90;;;;;;5053629;28;20257;-70
2022/06/29 07:53:31;;;;;;;0.30;0.30;;;32.00;65.20;;;;;;5053776;28;20174;-70
2022/06/29 07:55:57;;;;;;;0.90;0.60;;;32.00;62.50;;;;;;5052216;28;20245;-70
2022/06/29 07:58:23;;;;;;;0.50;0.50;;;31.50;61.90;;;;;;5053522;28;20178;-71
2022/06/29 08:00:49;;;;;;;0.30;0.30;;;30.70;63.90;;;;;;5052100;28;20994;-70
2022/06/29 08:03:15;;;;;;;1.00;1.00;;;29.60;64.80;;;;;;5053602;28;20409;-70
2022/06/29 08:05:41;;;;;;;0.40;0.40;;;28.40;70.60;;;;;;5052073;28;20709;-69
2022/06/29 08:08:07;;;;;;;0.50;0.50;;;27.30;73.80;;;;;;5053371;28;20858;-70
2022/06/29 08:10:33;;;;;;;0.50;0.50;;;26.50;78.60;;;;;;5053757;28;20413;-70
2022/06/29 08:12:59;;;;;;;0.30;0.30;;;26.00;81.00;;;;;;5053557;28;20171;-70
2022/06/29 08:15:26;;;;;;;0.40;0.40;;;25.60;80.50;;;;;;5053407;28;20769;-71
2022/06/29 08:17:52;;;;;;;0.40;0.40;;;25.50;84.00;;;;;;5053293;28;20963;-70
2022/06/29 08:20:19;;;;;;;0.40;0.40;;;25.30;79.70;;;;;;5053284;28;20554;-70
2022/06/29 08:22:45;;;;;;;0.70;0.70;;;25.20;84.60;;;;;;5053252;28;20416;-70
2022/06/29 08:25:11;;;;;;;0.30;0.30;;;24.80;87.70;;;;;;5053161;28;20410;-70
2022/06/29 08:27:38;;;;;;;0.30;0.30;;;24.40;87.40;;;;;;5053555;28;20567;-70
2022/06/29 08:30:05;;;;;;;0.30;0.30;;;24.40;90.00;;;;;;5053092;28;20415;-70
2022/06/29 08:32:30;;;;;;;0.63;0.63;;;25.70;88.60;;;;;;5053155;28;20451;-71
2022/06/29 08:35:00;;;;;;;0.30;0.30;;;27.30;83.10;;;;;;5051765;28;20445;-70
2022/06/29 08:37:26;;;;;;;0.30;0.30;;;28.90;75.20;;;;;;5053106;28;20583;-70
2022/06/29 08:39:52;;;;;;;0.70;0.60;;;30.00;69.90;;;;;;5053064;28;20413;-71
2022/06/29 08:42:22;;;;;;;0.53;0.53;;;29.90;68.40;;;;;;5053057;28;20864;-71
2022/06/29 08:44:49;;;;;;;0.40;0.40;;;29.10;70.90;;;;;;5053268;28;20197;-70
2022/06/29 08:47:15;;;;;;;0.40;0.40;;;28.00;72.90;;;;;;5052880;28;20506;-70
2022/06/29 08:49:41;;;;;;;0.30;0.30;;;26.90;75.10;;;;;;5052851;28;20408;-70
2022/06/29 08:52:08;;;;;;;0.30;0.30;;;26.00;78.10;;;;;;5053120;28;20190;-71
2022/06/29 08:54:41;;;;;;;0.30;0.30;;;25.30;82.00;;;;;;5053104;28;20905;-70
2022/06/29 08:57:08;;;;;;;0.30;0.30;;;24.90;79.70;;;;;;5053066;28;20518;-69
2022/06/29 08:59:36;;;;;;;0.30;0.30;;;24.80;80.00;;;;;;5052772;28;20408;-70
2022/06/29 09:02:03;;;;;;;0.30;0.30;;;25.30;85.70;;;;;;5051530;28;20425;-70
2022/06/29 09:04:29;;;;;;;0.50;0.50;;;27.20;80.40;;;;;;5052975;28;20432;-70
2022/06/29 09:06:56;;;;;;;0.60;0.60;;;29.70;70.60;;;;;;5052771;28;20474;-70
2022/06/29 09:09:22;;;;;;;0.30;0.30;;;32.20;60.60;;;;;;5052789;28;20175;-71
2022/06/29 09:11:52;;;;;;;0.30;0.30;;;33.60;58.60;;;;;;5052962;28;20499;-71
2022/06/29 09:14:23;;;;;;;0.50;0.40;;;33.70;55.50;;;;;;5054858;28;20483;-70
2022/06/29 09:16:49;;;;;;;0.40;0.40;;;32.70;57.10;;;;;;5056432;28;20762;-71
2022/06/29 09:19:19;;;;;;;0.90;0.90;;;31.00;58.90;;;;;;5056425;28;20480;-70
2022/06/29 09:21:48;;;;;;;0.30;0.30;;;29.10;62.40;;;;;;5056593;28;20519;-70
2022/06/29 09:24:18;;;;;;;0.30;0.30;;;27.70;64.80;;;;;;5056289;28;20748;-70
2022/06/29 09:26:48;;;;;;;0.30;0.30;;;26.40;73.90;;;;;;5056149;28;20932;-70
2022/06/29 09:29:29;;;;;;;0.40;0.40;;;25.80;75.10;;;;;;5056221;28;20408;-69
2022/06/29 09:32:07;;;;;;;0.50;0.50;;;25.40;77.20;;;;;;5056403;28;20397;-70
2022/06/29 09:34:48;;;;;;;0.30;0.30;;;25.20;79.70;;;;;;5056018;28;20435;-70
2022/06/29 09:37:16;;;;;;;0.40;0.40;;;25.20;84.20;;;;;;5055944;28;20408;-70
2022/06/29 09:40:02;;;;;;;0.30;0.30;;;26.00;84.50;;;;;;5055849;28;20440;-70
2022/06/29 09:42:28;;;;;;;0.30;0.30;;;26.80;80.00;;;;;;5055770;28;20421;-70
2022/06/29 09:44:54;;;;;;;0.30;0.30;;;27.00;78.00;;;;;;5054628;28;20450;-70
2022/06/29 09:47:23;;;;;;;0.50;0.50;;;26.80;78.00;;;;;;5055775;28;20700;-70
2022/06/29 09:49:53;;;;;;;0.30;0.30;;;26.60;75.40;;;;;;5055562;28;20412;-70
2022/06/29 09:52:19;;;;;;;0.30;0.30;;;26.40;78.90;;;;;;5055749;28;20415;-70
2022/06/29 09:54:55;;;;;;;0.30;0.30;;;26.30;80.10;;;;;;5055913;28;20830;-71
2022/06/29 09:57:25;;;;;;;0.30;0.30;;;26.20;81.20;;;;;;5055948;28;20396;-70
2022/06/29 10:02:45;;;;;;;0.30;0.30;;;26.70;77.80;;;;;;5056100;28;20458;-71
2022/06/29 10:05:16;;;;;;;0.33;0.33;;;27.30;78.80;;;;;;5055337;28;20481;-71
2022/06/29 10:07:49;;;;;;;0.50;0.50;;;27.50;74.60;;;;;;5055469;28;20502;-71
2022/06/29 10:10:17;;;;;;;0.30;0.30;;;27.20;74.20;;;;;;5055471;28;20484;-69
2022/06/29 10:16:05;;;;;;;0.40;0.40;;;26.00;75.80;;;;;;5055015;28;20485;-70
2022/06/29 10:18:50;;;;;;;0.40;0.40;;;25.60;78.70;;;;;;5054424;28;20855;-70
2022/06/29 10:21:27;;;;;;;0.30;0.30;;;25.60;77.90;;;;;;5054772;28;20892;-70
2022/06/29 10:23:57;;;;;;;0.40;0.40;;;26.50;80.00;;;;;;5054693;28;20434;-70
2022/06/29 10:26:35;;;;;;;0.87;0.70;;;28.10;74.10;;;;;;5053361;28;20504;-71
2022/06/29 10:29:06;;;;;;;0.43;0.43;;;29.10;67.50;;;;;;5055137;28;20408;-70
2022/06/29 10:31:51;;;;;;;0.30;0.30;;;29.70;67.00;;;;;;5055173;28;20437;-70
2022/06/29 10:34:32;;;;;;;0.40;0.40;;;29.50;62.50;;;;;;5053685;28;20423;-71
2022/06/29 10:37:12;;;;;;;0.40;0.40;;;29.00;64.40;;;;;;5054979;28;20403;-70
2022/06/29 10:39:48;;;;;;;0.30;0.30;;;28.40;66.90;;;;;;5054735;28;20415;-70
2022/06/29 10:45:16;;;;;;;0.30;0.30;;;26.60;73.70;;;;;;5054954;28;20558;-71
2022/06/29 10:47:54;;;;;;;0.30;0.30;;;26.10;77.30;;;;;;5054702;28;20444;-70
2022/06/29 10:50:21;;;;;;;0.30;0.30;;;25.80;79.00;;;;;;5054721;28;20413;-70
2022/06/29 10:52:48;;;;;;;0.30;0.30;;;25.60;80.20;;;;;;5054997;28;20408;-69
2022/06/29 10:55:15;;;;;;;0.77;0.77;;;25.10;78.80;;;;;;5053237;28;21018;-70
2022/06/29 10:57:43;;;;;;;0.40;0.40;;;25.10;84.20;;;;;;5054614;28;20509;-70
2022/06/29 11:00:20;;;;;;;0.40;0.40;;;24.90;84.10;;;;;;5054472;28;20886;-70
2022/06/29 11:02:46;;;;;;;0.30;0.30;;;25.00;83.30;;;;;;5054645;28;20385;-70
2022/06/29 11:05:13;;;;;;;0.30;0.30;;;25.00;82.00;;;;;;5054213;28;20457;-70
2022/06/29 11:13:25;;;;;;;0.30;0.30;;;25.30;82.90;;;;;;5030839;28;20496;-70
2022/06/29 11:15:53;;;;;;;0.30;0.30;;;25.70;82.80;;;;;;5054335;28;20448;-70
2022/06/29 11:18:29;;;;;;;0.30;0.30;;;25.50;81.80;;;;;;5053995;28;20509;-69
2022/06/29 11:21:02;;;;;;;1.77;0.90;;;25.40;83.80;;;;;;5054434;28;20396;-70
2022/06/29 11:23:29;;;;;;;0.30;0.30;;;25.20;82.10;;;;;;5054276;28;20491;-69
2022/06/29 11:25:55;;;;;;;0.30;0.30;;;25.00;85.10;;;;;;5053946;28;20415;-71
2022/06/29 11:28:26;;;;;;;0.47;0.47;;;24.70;84.20;;;;;;5053782;28;20820;-69
2022/06/29 11:31:06;;;;;;;0.67;0.60;;;24.50;87.60;;;;;;5054163;28;20588;-70
2022/06/29 11:33:36;;;;;;;0.50;0.50;;;24.20;84.60;;;;;;5054109;28;20403;-71
2022/06/29 11:36:04;;;;;;;0.30;0.30;;;23.90;83.40;;;;;;5053497;28;20955;-69
2022/06/29 11:38:30;;;;;;;0.77;0.50;;;23.80;86.00;;;;;;5053614;28;20749;-69
2022/06/29 11:40:56;;;;;;;0.30;0.30;;;23.80;88.80;;;;;;5052505;28;20395;-69
2022/06/29 11:43:22;;;;;;;0.40;0.40;;;23.90;85.30;;;;;;5053809;28;20209;-70
2022/06/29 11:45:57;;;;;;;0.40;0.40;;;24.10;84.40;;;;;;5053612;28;20205;-69
2022/06/29 11:48:26;;;;;;;0.30;0.30;;;24.20;85.80;;;;;;5053576;28;20997;-70
2022/06/29 11:51:01;;;;;;;0.40;0.40;;;24.40;83.30;;;;;;5053798;28;20805;-69
2022/06/29 11:53:40;;;;;;;0.30;0.30;;;25.00;80.10;;;;;;5053831;28;20403;-70
2022/06/29 11:56:17;;;;;;;0.30;0.30;;;25.40;80.50;;;;;;5053444;28;20426;-70
2022/06/29 11:58:50;;;;;;;0.30;0.30;;;25.50;77.90;;;;;;5053486;28;20413;-70
2022/06/29 12:01:19;;;;;;;0.30;0.30;;;25.60;78.70;;;;;;5053915;28;20387;-70
2022/06/29 12:03:49;;;;;;;0.40;0.40;;;25.60;79.60;;;;;;5053482;28;20804;-70
2022/06/29 12:06:16;;;;;;;0.40;0.40;;;25.90;74.80;;;;;;5053227;28;20461;-70
2022/06/29 12:08:42;;;;;;;0.70;0.70;;;26.20;80.40;;;;;;5053354;28;20386;-71
2022/06/29 12:11:07;;;;;;;0.43;0.43;;;26.30;78.40;;;;;;5053527;28;20468;-71
2022/06/29 12:13:33;;;;;;;0.50;0.50;;;26.10;76.50;;;;;;5053503;28;20630;-71
2022/06/29 12:15:59;;;;;;;0.30;0.30;;;26.10;80.70;;;;;;5053261;28;20273;-70
2022/06/29 12:18:25;;;;;;;0.30;0.30;;;26.10;79.70;;;;;;5053534;28;20188;-70
2022/06/29 12:20:51;;;;;;;0.30;0.30;;;25.90;76.70;;;;;;5053418;28;20257;-71
2022/06/29 12:23:17;;;;;;;0.40;0.40;;;25.60;79.20;;;;;;5053370;28;20849;-70
2022/06/29 12:25:44;;;;;;;0.40;0.40;;;25.40;83.80;;;;;;5053192;28;20186;-70
2022/06/29 12:28:10;;;;;;;0.30;0.30;;;24.90;83.80;;;;;;5052927;28;20448;-70
2022/06/29 12:30:36;;;;;;;0.30;0.30;;;24.40;87.60;;;;;;5053185;28;20411;-70
2022/06/29 12:33:02;;;;;;;0.30;0.30;;;24.10;90.20;;;;;;5053137;28;20767;-70
2022/06/29 12:35:29;;;;;;;0.30;0.30;;;23.70;91.10;;;;;;5051807;28;20416;-69
2022/06/29 12:37:57;;;;;;;0.30;0.30;;;23.40;92.70;;;;;;5053214;28;20416;-69
2022/06/29 12:40:26;;;;;;;0.50;0.50;;;23.10;92.30;;;;;;5053280;28;20380;-69
2022/06/29 12:42:52;;;;;;;0.40;0.40;;;23.20;93.50;;;;;;5053999;28;20387;-70
2022/06/29 12:45:19;;;;;;;0.40;0.40;;;23.40;94.00;;;;;;5052995;28;20403;-70
2022/06/29 12:47:45;;;;;;;0.40;0.40;;;23.70;86.90;;;;;;5053020;28;20455;-70
2022/06/29 12:50:11;;;;;;;0.30;0.30;;;24.20;87.90;;;;;;5056411;28;20428;-70
2022/06/29 12:52:40;;;;;;;0.40;0.40;;;24.70;87.90;;;;;;5057149;28;20398;-70
2022/06/29 12:55:10;;;;;;;0.30;0.30;;;25.00;84.20;;;;;;5056960;28;20550;-69
2022/06/29 12:57:36;;;;;;;0.40;0.40;;;25.20;86.40;;;;;;5057037;28;20526;-70
2022/06/29 13:00:03;;;;;;;0.30;0.30;;;25.50;87.00;;;;;;5056725;28;20422;-70
2022/06/29 13:02:30;;;;;;;0.30;0.30;;;25.60;81.80;;;;;;5056918;28;20177;-71
2022/06/29 13:04:56;;;;;;;0.30;0.30;;;25.70;80.50;;;;;;5056584;28;20523;-70
2022/06/29 13:07:26;;;;;;;0.30;0.30;;;25.80;80.70;;;;;;5056671;28;20535;-70
2022/06/29 13:09:52;;;;;;;0.47;0.47;;;26.10;82.70;;;;;;5056457;28;20276;-71
2022/06/29 13:12:18;;;;;;;0.60;0.60;;;26.20;81.10;;;;;;5056937;28;20755;-71
2022/06/29 13:14:44;;;;;;;0.40;0.40;;;25.90;76.70;;;;;;5056409;28;20423;-70
2022/06/29 13:17:09;;;;;;;0.50;0.50;;;25.50;79.50;;;;;;5056562;28;20266;-70